Time;durP1;ratioP1;P1;durP2;ratioP2;P2;SDS_P1;SDS_P2;PMS_P1;PMS_P2;Temp;Humidity;BMP_temperature;BMP_pressure;BME280_temperature;BME280_humidity;BME280_pressure;Samples;Min_cycle;Max_cycle;Signal;HPM_P1;HPM_P2
2024/01/11 00:00:31;;;;;;;12.02;7.80;;;0.60;77.40;;;;;;4729142;30;20051;-90
2024/01/11 00:02:56;;;;;;;11.07;8.23;;;0.60;77.10;;;;;;4733324;30;20032;-90
2024/01/11 00:05:22;;;;;;;10.93;7.60;;;0.60;77.80;;;;;;4747335;30;20054;-89
2024/01/11 00:07:48;;;;;;;12.52;8.27;;;0.60;77.10;;;;;;4713182;30;20047;-90
2024/01/11 00:10:15;;;;;;;9.68;6.60;;;0.60;77.10;;;;;;4714827;30;20124;-90
2024/01/11 00:12:41;;;;;;;12.02;7.68;;;0.60;77.10;;;;;;4731778;30;20048;-90
2024/01/11 00:15:07;;;;;;;11.07;7.93;;;0.60;77.20;;;;;;4728832;30;20040;-89
2024/01/11 00:17:32;;;;;;;11.82;8.20;;;0.50;77.10;;;;;;4727203;30;20041;-90
2024/01/11 00:19:58;;;;;;;12.98;8.25;;;0.60;77.10;;;;;;4714577;30;20097;-89
2024/01/11 00:22:24;;;;;;;11.45;8.05;;;0.50;77.30;;;;;;4715330;30;20059;-90
2024/01/11 00:24:50;;;;;;;12.55;7.68;;;0.50;77.10;;;;;;4732256;30;20036;-90
2024/01/11 00:27:16;;;;;;;12.73;8.38;;;0.50;77.10;;;;;;4727303;30;20040;-89
2024/01/11 00:29:41;;;;;;;11.63;7.97;;;0.50;77.10;;;;;;4720198;30;20040;-89
2024/01/11 00:32:07;;;;;;;12.32;7.93;;;0.50;77.10;;;;;;4718055;30;20069;-89
2024/01/11 00:34:33;;;;;;;13.85;8.65;;;0.50;77.10;;;;;;4732232;30;20044;-88
2024/01/11 00:36:59;;;;;;;14.05;8.98;;;0.40;77.10;;;;;;4730382;30;20051;-89
2024/01/11 00:39:25;;;;;;;11.38;8.00;;;0.50;77.80;;;;;;4716053;30;20028;-89
2024/01/11 00:41:51;;;;;;;12.32;7.53;;;0.50;77.80;;;;;;4730331;30;20055;-89
2024/01/11 00:44:17;;;;;;;11.15;7.45;;;0.50;77.20;;;;;;4720259;30;20051;-89
2024/01/11 00:46:42;;;;;;;12.25;7.60;;;0.50;77.10;;;;;;4710648;30;20089;-89
2024/01/11 00:49:08;;;;;;;11.52;7.85;;;0.50;77.10;;;;;;4729980;30;20032;-89
2024/01/11 00:51:34;;;;;;;12.48;8.60;;;0.40;77.10;;;;;;4713057;30;20032;-89
2024/01/11 00:54:00;;;;;;;12.48;8.32;;;0.40;77.10;;;;;;4729534;30;20032;-89
2024/01/11 00:56:26;;;;;;;10.68;7.70;;;0.40;77.10;;;;;;4730645;30;20040;-89
2024/01/11 00:58:52;;;;;;;11.95;7.60;;;0.40;77.10;;;;;;4715517;30;20040;-90
2024/01/11 01:01:18;;;;;;;11.70;8.15;;;0.40;77.10;;;;;;4731351;30;20040;-89
2024/01/11 01:03:44;;;;;;;11.05;7.15;;;0.40;77.10;;;;;;4728935;30;20028;-89
2024/01/11 01:06:10;;;;;;;10.02;6.72;;;0.40;77.10;;;;;;4731954;30;20405;-89
2024/01/11 01:08:35;;;;;;;10.10;7.38;;;0.30;77.10;;;;;;4726494;30;20127;-89
2024/01/11 01:11:01;;;;;;;10.85;7.13;;;0.40;77.10;;;;;;4761200;30;20106;-89
2024/01/11 01:13:27;;;;;;;10.05;7.40;;;0.40;77.10;;;;;;4732022;30;20040;-90
2024/01/11 01:15:52;;;;;;;12.82;8.65;;;0.40;77.10;;;;;;4748111;30;20028;-90
2024/01/11 01:18:18;;;;;;;10.90;7.65;;;0.30;77.10;;;;;;4729563;30;20066;-90
2024/01/11 01:20:44;;;;;;;10.50;7.07;;;0.30;77.10;;;;;;4718498;30;20033;-89
2024/01/11 01:23:10;;;;;;;11.20;7.00;;;0.30;77.10;;;;;;4726711;30;20039;-89
2024/01/11 01:25:36;;;;;;;11.48;7.25;;;0.30;77.10;;;;;;4730675;30;20032;-90
2024/01/11 01:28:01;;;;;;;11.90;7.93;;;0.30;77.20;;;;;;4732431;30;20107;-90
2024/01/11 01:30:27;;;;;;;11.35;7.05;;;0.30;77.10;;;;;;4744185;30;20836;-90
2024/01/11 01:32:53;;;;;;;12.40;7.78;;;0.30;77.10;;;;;;4745606;30;20070;-90
2024/01/11 01:35:19;;;;;;;11.98;7.82;;;0.30;77.20;;;;;;4716733;30;20032;-90
2024/01/11 01:37:45;;;;;;;13.63;8.52;;;0.30;77.20;;;;;;4735983;30;20371;-89
2024/01/11 01:40:14;;;;;;;10.43;7.35;;;0.20;77.20;;;;;;4716849;30;20032;-90
2024/01/11 01:42:44;;;;;;;9.55;6.82;;;0.30;77.20;;;;;;4732200;30;20037;-90
2024/01/11 01:45:10;;;;;;;11.05;7.85;;;0.20;77.10;;;;;;4720169;30;20039;-90
2024/01/11 01:47:40;;;;;;;11.40;7.85;;;0.20;77.10;;;;;;4722540;30;20049;-89
2024/01/11 01:50:07;;;;;;;10.35;7.30;;;0.20;77.10;;;;;;4749517;30;20489;-89
2024/01/11 01:52:34;;;;;;;11.32;7.32;;;0.20;77.10;;;;;;4731718;30;20036;-90
2024/01/11 01:55:02;;;;;;;11.00;7.45;;;0.20;77.20;;;;;;4714560;30;20045;-89
2024/01/11 01:57:29;;;;;;;12.55;7.65;;;0.20;77.20;;;;;;4734764;30;20032;-89
2024/01/11 01:59:55;;;;;;;10.02;7.07;;;0.20;77.20;;;;;;4717343;30;20040;-89
2024/01/11 02:02:22;;;;;;;10.40;7.07;;;0.10;77.10;;;;;;4722072;30;20039;-89
2024/01/11 02:04:48;;;;;;;12.25;7.50;;;0.10;77.10;;;;;;4732096;30;20056;-89
2024/01/11 02:07:14;;;;;;;10.38;7.65;;;0.10;77.10;;;;;;4734907;30;20044;-89
2024/01/11 02:09:40;;;;;;;10.32;7.25;;;0.10;76.80;;;;;;4729874;30;20044;-89
2024/01/11 02:12:10;;;;;;;11.75;7.32;;;0.10;77.20;;;;;;4733979;30;20545;-89
2024/01/11 02:14:37;;;;;;;12.00;6.90;;;0.10;77.20;;;;;;4745558;30;20070;-89
2024/01/11 02:17:03;;;;;;;10.50;6.90;;;0.10;77.10;;;;;;4722580;30;20044;-90
2024/01/11 02:19:29;;;;;;;9.77;7.22;;;0.10;77.20;;;;;;4733843;30;20032;-90
2024/01/11 02:21:58;;;;;;;10.48;7.60;;;0.10;77.10;;;;;;4734308;30;20494;-90
2024/01/11 02:24:24;;;;;;;10.88;7.63;;;0.00;77.10;;;;;;4749642;30;20035;-90
2024/01/11 02:27:03;;;;;;;9.18;6.53;;;0.00;77.10;;;;;;4733307;30;20040;-90
2024/01/11 02:29:29;;;;;;;10.70;7.15;;;0.00;77.20;;;;;;4733973;30;20035;-90
2024/01/11 02:32:01;;;;;;;10.30;7.32;;;0.00;77.10;;;;;;4733476;30;20055;-90
2024/01/11 02:34:27;;;;;;;9.93;6.97;;;0.00;77.10;;;;;;4736543;30;20092;-90
2024/01/11 02:36:56;;;;;;;10.73;7.38;;;0.00;77.10;;;;;;4721600;30;20493;-90
2024/01/11 02:39:24;;;;;;;11.25;7.10;;;0.00;77.20;;;;;;4731428;30;20560;-91
2024/01/11 02:41:52;;;;;;;9.98;7.13;;;0.00;77.10;;;;;;4731342;30;20028;-90
2024/01/11 02:44:17;;;;;;;11.98;7.80;;;-0.10;77.10;;;;;;4715945;30;20040;-90
2024/01/11 02:46:43;;;;;;;10.65;7.07;;;-0.10;77.20;;;;;;4733225;30;20405;-90
2024/01/11 02:49:09;;;;;;;10.77;7.38;;;-0.10;77.10;;;;;;4720161;30;20048;-90
2024/01/11 02:51:36;;;;;;;10.98;7.45;;;-0.10;77.10;;;;;;4732223;30;20055;-90
2024/01/11 02:54:02;;;;;;;10.00;7.00;;;-0.20;77.10;;;;;;4716902;30;20044;-90
2024/01/11 02:56:28;;;;;;;11.13;7.55;;;-0.10;77.20;;;;;;4716660;30;20575;-90
2024/01/11 02:58:53;;;;;;;10.43;7.18;;;-0.20;77.10;;;;;;4747485;30;20107;-90
2024/01/11 03:01:19;;;;;;;10.95;7.47;;;-0.20;77.20;;;;;;4731645;30;20502;-90
2024/01/11 03:03:45;;;;;;;10.80;6.93;;;-0.20;77.10;;;;;;4747603;30;20028;-90
2024/01/11 03:06:11;;;;;;;11.60;7.80;;;-0.20;77.10;;;;;;4730590;30;20460;-90
2024/01/11 03:08:36;;;;;;;10.02;7.15;;;-0.20;77.10;;;;;;4717162;30;20396;-90
2024/01/11 03:11:02;;;;;;;9.25;6.88;;;-0.20;77.10;;;;;;4719614;30;20070;-90
2024/01/11 03:13:28;;;;;;;9.93;6.60;;;-0.20;77.10;;;;;;4747081;30;20032;-90
2024/01/11 03:15:54;;;;;;;10.90;7.55;;;-0.20;77.10;;;;;;4750340;30;20028;-91
2024/01/11 03:18:19;;;;;;;10.40;7.20;;;-0.20;77.20;;;;;;4714917;30;20397;-90
2024/01/11 03:20:45;;;;;;;11.13;7.65;;;-0.30;77.10;;;;;;4720885;30;20040;-90
2024/01/11 03:23:11;;;;;;;9.15;6.10;;;-0.30;77.10;;;;;;4713265;30;20085;-90
2024/01/11 03:25:37;;;;;;;11.10;7.50;;;-0.30;77.10;;;;;;4731205;30;20052;-90
2024/01/11 03:28:03;;;;;;;10.00;6.70;;;-0.30;77.10;;;;;;4730274;30;20039;-90
2024/01/11 03:30:28;;;;;;;11.82;7.00;;;-0.30;77.10;;;;;;4732083;30;20059;-90
2024/01/11 03:32:54;;;;;;;10.18;6.95;;;-0.30;77.10;;;;;;4711653;30;20041;-90
2024/01/11 03:35:20;;;;;;;10.73;7.40;;;-0.30;77.10;;;;;;4725336;30;20029;-90
2024/01/11 03:37:46;;;;;;;11.70;8.02;;;-0.30;77.10;;;;;;4712657;30;20037;-90
2024/01/11 03:40:12;;;;;;;10.43;7.43;;;-0.40;77.10;;;;;;4714603;30;20032;-91
2024/01/11 03:42:37;;;;;;;10.80;7.15;;;-0.40;77.10;;;;;;4726213;30;20041;-90
2024/01/11 03:45:04;;;;;;;10.48;7.25;;;-0.40;77.10;;;;;;4726676;30;20158;-90
2024/01/11 03:47:30;;;;;;;9.68;6.88;;;-0.40;77.10;;;;;;4731170;30;20040;-90
2024/01/11 03:49:56;;;;;;;11.73;7.13;;;-0.40;77.10;;;;;;4728002;30;20028;-90
2024/01/11 03:52:22;;;;;;;10.15;7.72;;;-0.40;77.10;;;;;;4727221;30;20122;-91
2024/01/11 03:54:48;;;;;;;9.70;6.93;;;-0.50;77.10;;;;;;4726428;30;20085;-91
2024/01/11 03:57:14;;;;;;;9.38;6.80;;;-0.40;77.10;;;;;;4727297;30;20037;-91
2024/01/11 03:59:40;;;;;;;9.75;6.75;;;-0.50;77.10;;;;;;4727032;30;20503;-91
2024/01/11 04:02:07;;;;;;;10.63;7.07;;;-0.50;77.10;;;;;;4728461;30;20051;-90
2024/01/11 04:04:33;;;;;;;10.75;7.00;;;-0.50;77.10;;;;;;4728551;30;20059;-91
2024/01/11 04:06:59;;;;;;;12.30;8.32;;;-0.50;77.00;;;;;;4716088;30;20051;-90
2024/01/11 04:09:25;;;;;;;10.15;7.30;;;-0.50;77.40;;;;;;4729004;30;20486;-90
2024/01/11 04:11:50;;;;;;;10.02;7.38;;;-0.50;77.00;;;;;;4717596;30;20036;-90
2024/01/11 04:14:16;;;;;;;11.80;7.72;;;-0.50;77.00;;;;;;4730927;30;20044;-90
2024/01/11 04:16:43;;;;;;;10.80;7.82;;;-0.50;77.10;;;;;;4728758;30;20037;-91
2024/01/11 04:19:09;;;;;;;11.45;7.57;;;-0.50;77.10;;;;;;4716862;30;20029;-91
2024/01/11 04:21:35;;;;;;;9.90;6.97;;;-0.60;77.00;;;;;;4727003;30;20072;-91
2024/01/11 04:24:01;;;;;;;12.50;7.45;;;-0.60;77.00;;;;;;4726549;30;20040;-89
2024/01/11 04:26:26;;;;;;;10.50;7.28;;;-0.60;77.00;;;;;;4714890;30;20172;-89
2024/01/11 04:28:53;;;;;;;11.32;8.05;;;-0.60;77.00;;;;;;4726406;30;20518;-90
2024/01/11 04:31:19;;;;;;;10.63;7.35;;;-0.60;77.10;;;;;;4737815;30;20092;-91
2024/01/11 04:33:45;;;;;;;10.30;7.07;;;-0.60;77.00;;;;;;4728842;30;20054;-91
2024/01/11 04:36:12;;;;;;;10.88;7.22;;;-0.60;77.10;;;;;;4727233;30;20033;-90
2024/01/11 04:38:38;;;;;;;10.48;7.13;;;-0.60;77.00;;;;;;4731095;30;20124;-91
2024/01/11 04:41:11;;;;;;;10.85;7.47;;;-0.60;77.00;;;;;;4714991;30;20042;-89
2024/01/11 04:43:41;;;;;;;11.20;7.57;;;-0.60;77.10;;;;;;4716807;30;21879;-91
2024/01/11 04:46:14;;;;;;;10.50;7.20;;;-0.60;77.10;;;;;;4727865;30;20032;-91
2024/01/11 04:48:40;;;;;;;11.85;8.20;;;-0.60;77.10;;;;;;4741245;30;20108;-91
2024/01/11 04:51:06;;;;;;;11.88;7.82;;;-0.70;77.00;;;;;;4731983;30;20465;-92
2024/01/11 04:53:32;;;;;;;10.45;7.05;;;-0.70;77.10;;;;;;4716110;30;20055;-91
2024/01/11 04:55:57;;;;;;;11.98;7.63;;;-0.70;77.10;;;;;;4730141;30;20037;-91
2024/01/11 04:58:23;;;;;;;11.98;7.70;;;-0.70;77.10;;;;;;4735331;30;20482;-91
2024/01/11 05:00:49;;;;;;;9.80;7.32;;;-0.70;77.10;;;;;;4732618;30;20028;-92
2024/01/11 05:03:15;;;;;;;10.77;7.28;;;-0.70;77.10;;;;;;4715919;30;20055;-90
2024/01/11 05:05:41;;;;;;;11.18;7.65;;;-0.70;77.10;;;;;;4726743;30;20036;-91
2024/01/11 05:08:06;;;;;;;10.95;7.55;;;-0.80;77.00;;;;;;4732043;30;20036;-90
2024/01/11 05:10:32;;;;;;;11.77;8.00;;;-0.80;77.00;;;;;;4714511;30;20032;-90
2024/01/11 05:12:58;;;;;;;10.88;7.20;;;-0.80;77.00;;;;;;4717664;30;20094;-91
2024/01/11 05:15:24;;;;;;;10.50;7.75;;;-0.80;77.00;;;;;;4731471;30;20050;-91
2024/01/11 05:17:50;;;;;;;10.55;7.20;;;-0.80;77.00;;;;;;4747957;30;20498;-91
2024/01/11 05:20:16;;;;;;;12.00;8.18;;;-0.80;77.00;;;;;;4732447;30;20111;-91
2024/01/11 05:22:42;;;;;;;12.95;8.40;;;-0.80;77.00;;;;;;4715908;30;20128;-91
2024/01/11 05:25:08;;;;;;;11.35;7.95;;;-0.80;77.00;;;;;;4730078;30;20036;-88
2024/01/11 05:27:33;;;;;;;12.18;7.93;;;-0.80;77.00;;;;;;4731000;30;20032;-85
2024/01/11 05:29:59;;;;;;;12.43;8.75;;;-0.80;77.00;;;;;;4712754;30;20040;-87
2024/01/11 05:32:25;;;;;;;12.63;8.10;;;-0.90;77.00;;;;;;4728172;30;20418;-85
2024/01/11 05:34:51;;;;;;;11.00;7.63;;;-0.90;77.00;;;;;;4719743;30;20044;-86
2024/01/11 05:37:16;;;;;;;10.43;7.90;;;-0.90;77.00;;;;;;4721352;30;20117;-86
2024/01/11 05:39:42;;;;;;;11.98;7.93;;;-0.90;77.00;;;;;;4722219;30;20350;-84
2024/01/11 05:42:08;;;;;;;12.45;7.75;;;-0.90;77.00;;;;;;4743893;30;20052;-88
2024/01/11 05:44:34;;;;;;;11.50;8.45;;;-0.90;77.00;;;;;;4741208;30;20032;-87
2024/01/11 05:46:59;;;;;;;11.98;7.88;;;-0.90;77.00;;;;;;4737615;30;20036;-88
2024/01/11 05:49:25;;;;;;;11.60;8.38;;;-0.90;77.00;;;;;;4711342;30;20078;-91
2024/01/11 05:51:51;;;;;;;11.65;7.88;;;-0.90;77.00;;;;;;4717496;30;20544;-90
2024/01/11 05:54:17;;;;;;;12.30;8.65;;;-0.90;77.00;;;;;;4712361;30;20446;-90
2024/01/11 05:56:42;;;;;;;13.30;8.50;;;-1.00;76.90;;;;;;4741586;30;20028;-92
2024/01/11 05:59:08;;;;;;;12.35;8.57;;;-1.00;77.00;;;;;;4712938;30;20106;-89
2024/01/11 06:01:39;;;;;;;12.70;8.60;;;-1.00;77.00;;;;;;4725417;30;20028;-91
2024/01/11 06:04:05;;;;;;;11.90;8.40;;;-1.00;77.00;;;;;;4720286;30;20039;-92
2024/01/11 06:06:31;;;;;;;11.57;8.15;;;-1.00;77.00;;;;;;4744430;30;20028;-93
2024/01/11 06:08:57;;;;;;;11.40;7.78;;;-1.00;77.00;;;;;;4717244;30;20040;-87
2024/01/11 06:11:22;;;;;;;11.23;8.38;;;-1.00;77.60;;;;;;4734206;30;20028;-96
2024/01/11 06:13:48;;;;;;;12.63;9.35;;;-1.00;77.00;;;;;;4736245;30;20036;-92
2024/01/11 06:16:14;;;;;;;12.52;8.65;;;-1.00;77.00;;;;;;4726654;30;20028;-91
2024/01/11 06:18:40;;;;;;;12.93;8.82;;;-1.00;77.00;;;;;;4734633;30;20072;-92
2024/01/11 06:21:05;;;;;;;11.75;8.00;;;-1.00;77.00;;;;;;4738340;30;20055;-90
2024/01/11 06:23:31;;;;;;;11.48;8.57;;;-1.10;76.90;;;;;;4727841;30;20085;-91
2024/01/11 06:25:57;;;;;;;13.27;9.13;;;-1.00;77.00;;;;;;4743431;30;20533;-91
2024/01/11 06:28:23;;;;;;;13.27;8.90;;;-1.00;77.00;;;;;;4738938;30;20028;-90
2024/01/11 06:30:48;;;;;;;12.73;9.15;;;-1.10;76.90;;;;;;4739082;30;20032;-90
2024/01/11 06:33:14;;;;;;;13.50;8.95;;;-1.10;76.90;;;;;;4750025;30;20489;-90
2024/01/11 06:35:40;;;;;;;13.13;8.52;;;-1.10;76.90;;;;;;4749862;30;20409;-91
2024/01/11 06:38:06;;;;;;;12.57;8.88;;;-1.10;77.00;;;;;;4739807;30;20069;-90
2024/01/11 06:40:31;;;;;;;13.13;8.77;;;-1.10;77.60;;;;;;4748690;30;20071;-91
2024/01/11 06:42:57;;;;;;;13.48;8.85;;;-1.10;77.00;;;;;;4737239;30;20036;-86
2024/01/11 06:45:23;;;;;;;11.63;9.05;;;-1.10;77.40;;;;;;4729939;30;20482;-90
2024/01/11 06:47:49;;;;;;;14.85;9.50;;;-1.10;77.00;;;;;;4721664;30;20127;-91
2024/01/11 06:50:15;;;;;;;12.38;8.73;;;-1.10;77.00;;;;;;4738257;30;20033;-90
2024/01/11 06:52:40;;;;;;;13.27;8.80;;;-1.20;76.90;;;;;;4740625;30;20047;-90
2024/01/11 06:55:07;;;;;;;12.68;8.32;;;-1.20;76.90;;;;;;4734384;30;20078;-88
2024/01/11 06:57:33;;;;;;;13.38;9.60;;;-1.20;76.90;;;;;;4740202;30;20032;-91
2024/01/11 06:59:58;;;;;;;15.20;8.90;;;-1.20;76.90;;;;;;4738068;30;20036;-91
2024/01/11 07:02:24;;;;;;;12.27;9.18;;;-1.20;76.90;;;;;;4755028;30;20121;-92
2024/01/11 07:04:50;;;;;;;13.80;9.88;;;-1.20;76.90;;;;;;4742363;30;20071;-91
2024/01/11 07:07:16;;;;;;;14.00;9.48;;;-1.20;76.90;;;;;;4724491;30;20060;-91
2024/01/11 07:09:42;;;;;;;13.32;9.38;;;-1.20;76.90;;;;;;4732433;30;20429;-91
2024/01/11 07:12:07;;;;;;;14.55;9.90;;;-1.20;76.90;;;;;;4737566;30;20040;-90
2024/01/11 07:14:33;;;;;;;14.93;9.93;;;-1.20;76.90;;;;;;4724017;30;20402;-91
2024/01/11 07:16:59;;;;;;;13.82;10.02;;;-1.20;76.90;;;;;;4741777;30;20087;-92
2024/01/11 07:19:25;;;;;;;14.20;9.75;;;-1.20;76.90;;;;;;4724890;30;20107;-91
2024/01/11 07:21:51;;;;;;;14.90;9.73;;;-1.30;76.90;;;;;;4749507;30;20032;-92
2024/01/11 07:24:18;;;;;;;12.75;9.25;;;-1.30;76.90;;;;;;4724403;30;20157;-90
2024/01/11 07:26:44;;;;;;;13.40;9.43;;;-1.30;76.90;;;;;;4745368;30;20544;-92
2024/01/11 07:29:10;;;;;;;12.50;9.57;;;-1.20;76.90;;;;;;4752630;30;20036;-91
2024/01/11 07:31:35;;;;;;;13.93;9.23;;;-1.30;76.90;;;;;;4724566;30;20049;-92
2024/01/11 07:34:01;;;;;;;14.05;9.93;;;-1.30;76.90;;;;;;4718746;30;20489;-94
2024/01/11 07:36:27;;;;;;;15.18;9.85;;;-1.30;76.90;;;;;;4724175;30;20526;-88
2024/01/11 07:38:53;;;;;;;14.23;9.50;;;-1.30;76.90;;;;;;4750723;30;20119;-84
2024/01/11 07:41:21;;;;;;;15.32;10.50;;;-1.30;76.90;;;;;;4737072;30;20107;-87
2024/01/11 07:43:48;;;;;;;14.77;11.02;;;-1.30;76.90;;;;;;4740286;30;20044;-88
2024/01/11 07:46:13;;;;;;;16.92;11.23;;;-1.30;76.90;;;;;;4745443;30;20032;-88
2024/01/11 07:48:39;;;;;;;13.85;10.27;;;-1.30;76.90;;;;;;4736904;30;20036;-88
2024/01/11 07:51:05;;;;;;;17.08;11.10;;;-1.30;76.90;;;;;;4741711;30;20401;-88
2024/01/11 07:53:31;;;;;;;14.50;10.43;;;-1.30;76.90;;;;;;4721724;30;20048;-87
2024/01/11 07:55:57;;;;;;;14.82;10.30;;;-1.30;76.90;;;;;;4718293;30;20118;-87
2024/01/11 07:58:23;;;;;;;13.57;9.90;;;-1.30;76.90;;;;;;4726226;30;20041;-88
2024/01/11 08:00:49;;;;;;;15.63;10.38;;;-1.30;76.90;;;;;;4730260;30;20032;-88
2024/01/11 08:03:15;;;;;;;13.95;10.25;;;-1.30;76.90;;;;;;4734487;30;20028;-88
2024/01/11 08:05:43;;;;;;;15.90;10.60;;;-1.30;76.90;;;;;;4754098;30;20051;-88
2024/01/11 08:08:08;;;;;;;14.63;9.93;;;-1.30;76.90;;;;;;4722694;30;20489;-87
2024/01/11 08:10:34;;;;;;;14.02;9.95;;;-1.40;76.80;;;;;;4728204;30;20094;-87
2024/01/11 08:13:00;;;;;;;14.98;10.88;;;-1.40;76.80;;;;;;4742304;30;20035;-88
2024/01/11 08:15:26;;;;;;;14.65;10.57;;;-1.40;76.90;;;;;;4744076;30;20423;-88
2024/01/11 08:17:53;;;;;;;14.20;10.32;;;-1.40;76.80;;;;;;4726382;30;20477;-88
2024/01/11 08:20:19;;;;;;;16.52;11.63;;;-1.40;76.80;;;;;;4738142;30;20090;-86
2024/01/11 08:22:46;;;;;;;15.35;10.32;;;-1.40;76.80;;;;;;4731331;30;20028;-86
2024/01/11 08:25:13;;;;;;;15.85;10.32;;;-1.40;76.80;;;;;;4753725;30;20553;-86
2024/01/11 08:27:39;;;;;;;17.02;11.43;;;-1.40;76.80;;;;;;4720558;30;20089;-86
2024/01/11 08:30:05;;;;;;;14.93;11.25;;;-1.40;76.80;;;;;;4736744;30;20033;-85
2024/01/11 08:32:31;;;;;;;15.57;10.85;;;-1.40;76.80;;;;;;4732719;30;20071;-85
2024/01/11 08:34:57;;;;;;;16.88;11.82;;;-1.40;76.80;;;;;;4748840;30;20487;-85
2024/01/11 08:37:23;;;;;;;16.90;11.48;;;-1.40;76.90;;;;;;4709391;30;20028;-85
2024/01/11 08:39:50;;;;;;;17.15;10.68;;;-1.40;76.80;;;;;;4728984;30;20515;-84
2024/01/11 08:42:16;;;;;;;15.00;10.32;;;-1.40;76.90;;;;;;4735145;30;20159;-86
2024/01/11 08:44:42;;;;;;;14.07;10.57;;;-1.40;76.90;;;;;;4735530;30;20056;-85
2024/01/11 08:47:09;;;;;;;15.13;10.48;;;-1.40;76.90;;;;;;4734603;30;20089;-85
2024/01/11 08:49:41;;;;;;;14.40;9.88;;;-1.40;76.90;;;;;;4733995;30;20041;-86
2024/01/11 08:52:08;;;;;;;16.17;11.00;;;-1.40;76.90;;;;;;4745561;30;20032;-85
2024/01/11 08:54:34;;;;;;;14.25;10.35;;;-1.40;76.90;;;;;;4725562;30;20032;-85
2024/01/11 08:56:59;;;;;;;16.75;11.70;;;-1.40;76.80;;;;;;4716200;30;20482;-85
2024/01/11 08:59:25;;;;;;;16.95;11.60;;;-1.40;76.80;;;;;;4739375;30;20152;-85
2024/01/11 09:01:52;;;;;;;16.02;11.18;;;-1.40;76.80;;;;;;4736266;30;20077;-85
2024/01/11 09:04:18;;;;;;;15.77;10.55;;;-1.40;76.90;;;;;;4740621;30;20370;-91
2024/01/11 09:06:44;;;;;;;18.10;12.45;;;-1.40;76.90;;;;;;4720864;30;20024;-89
2024/01/11 09:09:13;;;;;;;16.92;12.27;;;-1.40;76.80;;;;;;4726076;30;20130;-88
2024/01/11 09:11:42;;;;;;;17.17;10.70;;;-1.40;77.50;;;;;;4712474;30;20056;-85
2024/01/11 09:14:10;;;;;;;15.80;11.18;;;-1.40;76.80;;;;;;4722532;30;20172;-90
2024/01/11 09:16:36;;;;;;;16.40;11.63;;;-1.40;76.80;;;;;;4727063;30;20107;-89
2024/01/11 09:19:02;;;;;;;18.17;11.65;;;-1.40;76.80;;;;;;4748350;30;20047;-89
2024/01/11 09:21:28;;;;;;;16.20;11.48;;;-1.40;76.80;;;;;;4745367;30;20036;-89
2024/01/11 09:23:55;;;;;;;15.38;10.70;;;-1.40;76.80;;;;;;4734857;30;20029;-89
2024/01/11 09:26:22;;;;;;;19.63;12.65;;;-1.30;76.80;;;;;;4720149;30;20033;-88
2024/01/11 09:28:48;;;;;;;17.98;11.82;;;-1.30;76.80;;;;;;4732469;30;20032;-91
2024/01/11 09:31:14;;;;;;;18.98;12.73;;;-1.30;76.80;;;;;;4726764;30;20044;-89
2024/01/11 09:33:42;;;;;;;17.30;12.13;;;-1.30;76.70;;;;;;4736236;30;20032;-90
2024/01/11 09:36:08;;;;;;;16.92;11.73;;;-1.30;76.70;;;;;;4735073;30;20040;-89
2024/01/11 09:38:34;;;;;;;17.42;11.90;;;-1.20;76.70;;;;;;4714482;30;20064;-89
2024/01/11 09:41:09;;;;;;;16.90;11.68;;;-1.20;76.60;;;;;;4715754;30;20082;-90
2024/01/11 09:43:35;;;;;;;16.65;12.18;;;-1.20;76.70;;;;;;4725172;30;20068;-89
2024/01/11 09:46:05;;;;;;;15.98;11.10;;;-1.20;76.60;;;;;;4732465;30;20041;-90
2024/01/11 09:48:34;;;;;;;17.83;12.20;;;-1.10;76.70;;;;;;4721045;30;20060;-90
2024/01/11 09:51:07;;;;;;;17.85;12.25;;;-1.10;76.70;;;;;;4736929;30;20036;-89
2024/01/11 09:53:33;;;;;;;16.52;11.13;;;-1.10;76.70;;;;;;4734499;30;20077;-88
2024/01/11 09:56:00;;;;;;;19.95;12.07;;;-1.10;76.60;;;;;;4736853;30;20067;-89
2024/01/11 09:58:26;;;;;;;18.27;11.93;;;-1.10;76.60;;;;;;4733880;30;20032;-88
2024/01/11 10:00:56;;;;;;;16.67;11.13;;;-1.00;76.70;;;;;;4735358;30;20071;-88
2024/01/11 10:03:26;;;;;;;16.58;11.55;;;-1.00;76.70;;;;;;4734981;30;20036;-88
2024/01/11 10:05:56;;;;;;;17.30;12.88;;;-1.00;76.60;;;;;;4751686;30;20091;-88
2024/01/11 10:08:23;;;;;;;16.38;11.13;;;-1.00;76.60;;;;;;4747678;30;20025;-88
2024/01/11 10:10:49;;;;;;;18.75;13.23;;;-1.00;76.60;;;;;;4749660;30;20048;-89
2024/01/11 10:13:16;;;;;;;17.02;12.13;;;-0.90;76.70;;;;;;4729868;30;20044;-88
2024/01/11 10:15:42;;;;;;;16.70;11.07;;;-0.90;76.70;;;;;;4727540;30;20154;-89
2024/01/11 10:18:08;;;;;;;17.42;11.60;;;-0.90;76.70;;;;;;4735745;30;20039;-89
2024/01/11 10:20:35;;;;;;;17.00;12.15;;;-0.90;76.70;;;;;;4733697;30;20028;-90
2024/01/11 10:23:02;;;;;;;17.88;12.55;;;-0.90;76.70;;;;;;4740341;30;20095;-89
2024/01/11 10:25:28;;;;;;;17.17;11.15;;;-0.90;76.70;;;;;;4736502;30;20030;-84
2024/01/11 10:27:54;;;;;;;19.23;12.18;;;-0.80;76.70;;;;;;4715713;30;20033;-89
2024/01/11 10:30:22;;;;;;;16.55;11.32;;;-0.80;76.70;;;;;;4739573;30;20570;-89
2024/01/11 10:32:48;;;;;;;17.92;11.15;;;-0.80;76.70;;;;;;4695448;30;1276546;-91
2024/01/11 10:35:17;;;;;;;17.13;11.38;;;-0.80;76.70;;;;;;4737718;30;20050;-92
2024/01/11 10:37:44;;;;;;;16.38;11.45;;;-0.80;76.70;;;;;;4737806;30;20032;-91
2024/01/11 10:40:12;;;;;;;15.70;11.50;;;-0.70;76.70;;;;;;4731106;30;20086;-92
2024/01/11 10:42:42;;;;;;;16.42;11.50;;;-0.70;76.70;;;;;;4738505;30;20042;-90
2024/01/11 10:45:15;;;;;;;17.27;11.73;;;-0.70;76.70;;;;;;4715893;30;20509;-91
2024/01/11 10:48:01;;;;;;;14.63;10.68;;;-0.70;76.80;;;;;;4738201;30;20043;-90
2024/01/11 10:50:34;;;;;;;15.93;10.52;;;-0.70;76.70;;;;;;4722409;30;20105;-89
2024/01/11 10:53:36;;;;;;;15.55;11.15;;;-0.70;76.70;;;;;;4716834;30;20123;-89
2024/01/11 10:56:04;;;;;;;16.17;10.77;;;-0.60;76.80;;;;;;4725334;30;20073;-89
2024/01/11 10:58:32;;;;;;;14.88;10.23;;;-0.60;76.70;;;;;;4743417;30;20037;-89
2024/01/11 11:01:00;;;;;;;15.88;10.60;;;-0.60;76.80;;;;;;4754222;30;20037;-90
2024/01/11 11:03:28;;;;;;;14.88;10.77;;;-0.60;76.80;;;;;;4723065;30;20035;-90
2024/01/11 11:05:57;;;;;;;16.48;11.55;;;-0.60;76.80;;;;;;4721501;30;20132;-88
2024/01/11 11:08:26;;;;;;;14.90;10.38;;;-0.50;76.80;;;;;;4733265;30;20156;-89
2024/01/11 11:11:00;;;;;;;14.48;9.75;;;-0.50;76.80;;;;;;4742619;30;20040;-89
2024/01/11 11:13:26;;;;;;;14.75;10.15;;;-0.50;76.80;;;;;;4735612;30;20033;-89
2024/01/11 11:15:53;;;;;;;14.15;10.13;;;-0.50;76.80;;;;;;4730864;30;20066;-87
2024/01/11 11:18:20;;;;;;;13.73;9.43;;;-0.40;76.80;;;;;;4737347;30;20080;-89
2024/01/11 11:20:47;;;;;;;14.20;9.68;;;-0.40;76.80;;;;;;4733917;30;20125;-88
2024/01/11 11:23:19;;;;;;;12.95;9.25;;;-0.40;76.80;;;;;;4726090;30;20028;-89
2024/01/11 11:25:46;;;;;;;13.30;8.80;;;-0.30;76.90;;;;;;4740178;30;20043;-89
2024/01/11 11:28:14;;;;;;;14.93;9.85;;;-0.30;76.90;;;;;;4729154;30;20031;-89
2024/01/11 11:30:41;;;;;;;13.10;8.43;;;-0.20;76.90;;;;;;4727049;30;20068;-89
2024/01/11 11:33:09;;;;;;;12.90;8.23;;;-0.20;76.90;;;;;;4743375;30;20032;-89
2024/01/11 11:35:36;;;;;;;12.65;8.07;;;-0.20;76.90;;;;;;4723919;30;20028;-87
2024/01/11 11:38:02;;;;;;;12.45;7.57;;;-0.20;76.90;;;;;;4728004;30;20032;-91
2024/01/11 11:40:39;;;;;;;12.00;8.20;;;-0.10;76.90;;;;;;4754544;30;20191;-90
2024/01/11 11:43:06;;;;;;;12.95;8.82;;;-0.10;77.00;;;;;;4756374;30;20043;-90
2024/01/11 11:45:32;;;;;;;12.20;7.32;;;0.00;77.00;;;;;;4747338;30;20096;-91
2024/01/11 11:47:58;;;;;;;11.98;7.47;;;0.00;76.90;;;;;;4718434;30;20040;-89
2024/01/11 11:50:24;;;;;;;11.95;7.35;;;0.00;77.00;;;;;;4738755;30;20034;-87
2024/01/11 11:52:57;;;;;;;11.52;7.75;;;0.10;77.00;;;;;;4752524;30;20029;-89
2024/01/11 11:55:25;;;;;;;11.80;7.55;;;0.10;77.00;;;;;;4739997;30;20031;-90
2024/01/11 11:57:52;;;;;;;11.55;7.22;;;0.10;77.60;;;;;;4720979;30;20064;-88
2024/01/11 12:00:18;;;;;;;12.23;7.55;;;0.20;77.00;;;;;;4737816;30;20037;-90
2024/01/11 12:02:44;;;;;;;12.43;7.38;;;0.20;77.00;;;;;;4752112;30;20560;-84
2024/01/11 12:05:09;;;;;;;11.23;7.47;;;0.20;77.00;;;;;;4750053;30;20039;-93
2024/01/11 12:07:35;;;;;;;12.65;7.13;;;0.30;77.00;;;;;;4729133;30;20036;-90
2024/01/11 12:10:01;;;;;;;11.15;7.18;;;0.30;77.00;;;;;;4731579;30;20074;-89
2024/01/11 12:12:28;;;;;;;11.25;7.13;;;0.40;77.10;;;;;;4735442;30;20520;-90
2024/01/11 12:14:54;;;;;;;11.13;7.80;;;0.40;77.10;;;;;;4733338;30;20035;-89
2024/01/11 12:17:20;;;;;;;9.95;6.25;;;0.40;77.10;;;;;;4738118;30;20028;-90
2024/01/11 12:19:45;;;;;;;12.00;7.18;;;0.40;77.10;;;;;;4720253;30;20032;-89
2024/01/11 12:22:11;;;;;;;11.82;7.00;;;0.50;77.10;;;;;;4744271;30;20063;-89
2024/01/11 12:24:37;;;;;;;11.57;6.88;;;0.50;77.10;;;;;;4726608;30;20045;-90
2024/01/11 12:27:03;;;;;;;12.15;7.32;;;0.50;77.10;;;;;;4723503;30;20062;-90
2024/01/11 12:29:30;;;;;;;11.90;7.20;;;0.60;77.20;;;;;;4733765;30;20054;-90
2024/01/11 12:31:59;;;;;;;10.20;6.93;;;0.60;77.20;;;;;;4733264;30;20041;-91
2024/01/11 12:34:25;;;;;;;10.32;6.57;;;0.60;77.20;;;;;;4734235;30;20047;-91